sensor_id;sensor_type;location;lat;lon;timestamp;P1;durP1;ratioP1;P2;durP2;ratioP2
4652;SDS011;9900;48.738;9.306;2022-12-17T00:01:51;16.03;;;9.67;;
4652;SDS011;9900;48.738;9.306;2022-12-17T00:04:38;19.63;;;10.67;;
4652;SDS011;9900;48.738;9.306;2022-12-17T00:07:38;20.13;;;11.80;;
4652;SDS011;9900;48.738;9.306;2022-12-17T00:10:33;18.93;;;10.47;;
4652;SDS011;9900;48.738;9.306;2022-12-17T00:13:20;17.87;;;10.93;;
4652;SDS011;9900;48.738;9.306;2022-12-17T00:16:07;18.90;;;11.53;;
4652;SDS011;9900;48.738;9.306;2022-12-17T00:18:55;20.00;;;11.00;;
4652;SDS011;9900;48.738;9.306;2022-12-17T00:21:41;25.50;;;11.93;;
4652;SDS011;9900;48.738;9.306;2022-12-17T00:24:27;21.00;;;11.63;;
4652;SDS011;9900;48.738;9.306;2022-12-17T00:27:13;20.13;;;11.03;;
4652;SDS011;9900;48.738;9.306;2022-12-17T00:29:59;21.77;;;11.63;;
4652;SDS011;9900;48.738;9.306;2022-12-17T00:32:45;19.80;;;11.63;;
4652;SDS011;9900;48.738;9.306;2022-12-17T00:35:33;21.40;;;12.67;;
4652;SDS011;9900;48.738;9.306;2022-12-17T00:38:33;19.33;;;9.87;;
4652;SDS011;9900;48.738;9.306;2022-12-17T00:41:19;27.17;;;12.23;;
4652;SDS011;9900;48.738;9.306;2022-12-17T00:44:06;20.33;;;11.30;;
4652;SDS011;9900;48.738;9.306;2022-12-17T00:46:52;22.43;;;11.30;;
4652;SDS011;9900;48.738;9.306;2022-12-17T00:49:38;21.03;;;11.63;;
4652;SDS011;9900;48.738;9.306;2022-12-17T00:52:26;22.87;;;11.80;;
4652;SDS011;9900;48.738;9.306;2022-12-17T00:55:12;25.23;;;11.97;;
4652;SDS011;9900;48.738;9.306;2022-12-17T00:57:55;17.43;;;10.63;;
4652;SDS011;9900;48.738;9.306;2022-12-17T01:00:47;17.93;;;11.20;;
4652;SDS011;9900;48.738;9.306;2022-12-17T01:03:33;24.87;;;12.83;;
4652;SDS011;9900;48.738;9.306;2022-12-17T01:06:20;23.03;;;11.60;;
4652;SDS011;9900;48.738;9.306;2022-12-17T01:09:18;25.53;;;11.53;;
4652;SDS011;9900;48.738;9.306;2022-12-17T01:12:05;22.20;;;11.87;;
4652;SDS011;9900;48.738;9.306;2022-12-17T01:14:51;25.73;;;12.53;;
4652;SDS011;9900;48.738;9.306;2022-12-17T01:17:37;20.77;;;12.07;;
4652;SDS011;9900;48.738;9.306;2022-12-17T01:20:23;22.00;;;13.17;;
4652;SDS011;9900;48.738;9.306;2022-12-17T01:23:10;22.57;;;11.30;;
4652;SDS011;9900;48.738;9.306;2022-12-17T01:25:57;23.50;;;12.80;;
4652;SDS011;9900;48.738;9.306;2022-12-17T01:28:43;24.47;;;12.13;;
4652;SDS011;9900;48.738;9.306;2022-12-17T01:31:29;26.03;;;12.80;;
4652;SDS011;9900;48.738;9.306;2022-12-17T01:34:15;23.07;;;11.93;;
4652;SDS011;9900;48.738;9.306;2022-12-17T01:37:02;25.63;;;12.37;;
4652;SDS011;9900;48.738;9.306;2022-12-17T01:39:48;24.50;;;11.97;;
4652;SDS011;9900;48.738;9.306;2022-12-17T01:42:39;18.30;;;11.30;;
4652;SDS011;9900;48.738;9.306;2022-12-17T01:45:27;23.53;;;12.30;;
4652;SDS011;9900;48.738;9.306;2022-12-17T01:48:16;22.50;;;12.50;;
4652;SDS011;9900;48.738;9.306;2022-12-17T01:51:02;22.87;;;11.33;;
4652;SDS011;9900;48.738;9.306;2022-12-17T01:53:50;20.40;;;10.60;;
4652;SDS011;9900;48.738;9.306;2022-12-17T01:56:38;22.10;;;11.70;;
4652;SDS011;9900;48.738;9.306;2022-12-17T01:59:28;22.97;;;12.00;;
4652;SDS011;9900;48.738;9.306;2022-12-17T02:02:20;21.10;;;10.90;;
4652;SDS011;9900;48.738;9.306;2022-12-17T02:05:07;19.80;;;10.00;;
4652;SDS011;9900;48.738;9.306;2022-12-17T02:07:55;18.23;;;10.87;;
4652;SDS011;9900;48.738;9.306;2022-12-17T02:10:48;20.93;;;10.13;;
4652;SDS011;9900;48.738;9.306;2022-12-17T02:13:40;23.83;;;10.93;;
4652;SDS011;9900;48.738;9.306;2022-12-17T02:16:29;18.50;;;10.00;;
4652;SDS011;9900;48.738;9.306;2022-12-17T02:19:23;22.10;;;10.47;;
4652;SDS011;9900;48.738;9.306;2022-12-17T02:22:17;23.83;;;10.63;;
4652;SDS011;9900;48.738;9.306;2022-12-17T02:25:12;23.13;;;11.20;;
4652;SDS011;9900;48.738;9.306;2022-12-17T02:28:02;30.70;;;11.70;;
4652;SDS011;9900;48.738;9.306;2022-12-17T02:30:49;24.60;;;11.13;;
4652;SDS011;9900;48.738;9.306;2022-12-17T02:33:35;19.33;;;10.03;;
4652;SDS011;9900;48.738;9.306;2022-12-17T02:36:24;16.47;;;9.60;;
4652;SDS011;9900;48.738;9.306;2022-12-17T02:39:10;21.97;;;10.77;;
4652;SDS011;9900;48.738;9.306;2022-12-17T02:41:56;18.70;;;10.90;;
4652;SDS011;9900;48.738;9.306;2022-12-17T02:44:44;19.67;;;10.90;;
4652;SDS011;9900;48.738;9.306;2022-12-17T02:47:30;16.80;;;10.33;;
4652;SDS011;9900;48.738;9.306;2022-12-17T02:50:16;23.17;;;11.73;;
4652;SDS011;9900;48.738;9.306;2022-12-17T02:53:03;20.43;;;11.00;;
4652;SDS011;9900;48.738;9.306;2022-12-17T02:55:49;21.80;;;11.30;;
4652;SDS011;9900;48.738;9.306;2022-12-17T02:58:35;23.67;;;12.30;;
4652;SDS011;9900;48.738;9.306;2022-12-17T03:01:22;20.20;;;11.20;;
4652;SDS011;9900;48.738;9.306;2022-12-17T03:04:08;21.07;;;11.20;;
4652;SDS011;9900;48.738;9.306;2022-12-17T03:07:03;23.67;;;11.30;;
4652;SDS011;9900;48.738;9.306;2022-12-17T03:09:49;20.47;;;10.90;;
4652;SDS011;9900;48.738;9.306;2022-12-17T03:12:35;18.60;;;11.07;;
4652;SDS011;9900;48.738;9.306;2022-12-17T03:15:21;19.90;;;10.53;;
4652;SDS011;9900;48.738;9.306;2022-12-17T03:18:08;21.80;;;11.80;;
4652;SDS011;9900;48.738;9.306;2022-12-17T03:20:54;18.13;;;10.03;;
4652;SDS011;9900;48.738;9.306;2022-12-17T03:23:40;28.50;;;11.37;;
4652;SDS011;9900;48.738;9.306;2022-12-17T03:26:26;24.00;;;12.60;;
4652;SDS011;9900;48.738;9.306;2022-12-17T03:29:13;21.80;;;11.13;;
4652;SDS011;9900;48.738;9.306;2022-12-17T03:31:58;25.77;;;11.93;;
4652;SDS011;9900;48.738;9.306;2022-12-17T03:34:46;19.33;;;10.83;;
4652;SDS011;9900;48.738;9.306;2022-12-17T03:37:32;17.83;;;10.30;;
4652;SDS011;9900;48.738;9.306;2022-12-17T03:40:18;33.17;;;11.23;;
4652;SDS011;9900;48.738;9.306;2022-12-17T03:43:05;19.07;;;10.00;;
4652;SDS011;9900;48.738;9.306;2022-12-17T03:45:51;19.70;;;11.40;;
4652;SDS011;9900;48.738;9.306;2022-12-17T03:48:38;24.63;;;11.77;;
4652;SDS011;9900;48.738;9.306;2022-12-17T03:51:25;21.40;;;11.33;;
4652;SDS011;9900;48.738;9.306;2022-12-17T03:54:11;19.23;;;9.90;;
4652;SDS011;9900;48.738;9.306;2022-12-17T03:56:58;19.70;;;11.37;;
4652;SDS011;9900;48.738;9.306;2022-12-17T03:59:44;20.73;;;10.97;;
4652;SDS011;9900;48.738;9.306;2022-12-17T04:02:30;18.77;;;10.77;;
4652;SDS011;9900;48.738;9.306;2022-12-17T04:05:16;21.07;;;12.07;;
4652;SDS011;9900;48.738;9.306;2022-12-17T04:08:04;18.53;;;11.03;;
4652;SDS011;9900;48.738;9.306;2022-12-17T04:10:50;18.93;;;11.57;;
4652;SDS011;9900;48.738;9.306;2022-12-17T04:13:36;21.60;;;11.60;;
4652;SDS011;9900;48.738;9.306;2022-12-17T04:16:22;17.27;;;10.00;;
4652;SDS011;9900;48.738;9.306;2022-12-17T04:19:09;18.60;;;10.50;;
4652;SDS011;9900;48.738;9.306;2022-12-17T04:21:55;21.03;;;10.47;;
4652;SDS011;9900;48.738;9.306;2022-12-17T04:24:42;20.03;;;11.40;;
4652;SDS011;9900;48.738;9.306;2022-12-17T04:27:28;20.73;;;11.03;;
4652;SDS011;9900;48.738;9.306;2022-12-17T04:30:14;21.70;;;11.63;;
4652;SDS011;9900;48.738;9.306;2022-12-17T04:33:00;18.63;;;10.43;;
4652;SDS011;9900;48.738;9.306;2022-12-17T04:35:46;22.53;;;11.83;;
4652;SDS011;9900;48.738;9.306;2022-12-17T04:38:33;18.20;;;10.90;;
4652;SDS011;9900;48.738;9.306;2022-12-17T04:41:20;25.37;;;11.77;;
4652;SDS011;9900;48.738;9.306;2022-12-17T04:44:06;30.67;;;12.70;;
4652;SDS011;9900;48.738;9.306;2022-12-17T04:46:52;20.20;;;11.90;;
4652;SDS011;9900;48.738;9.306;2022-12-17T04:49:38;23.90;;;12.77;;
4652;SDS011;9900;48.738;9.306;2022-12-17T04:52:24;22.80;;;11.87;;
4652;SDS011;9900;48.738;9.306;2022-12-17T04:55:11;25.93;;;12.87;;
4652;SDS011;9900;48.738;9.306;2022-12-17T04:58:01;23.40;;;12.20;;
4652;SDS011;9900;48.738;9.306;2022-12-17T05:00:56;29.50;;;12.50;;
4652;SDS011;9900;48.738;9.306;2022-12-17T05:03:42;25.33;;;12.63;;
4652;SDS011;9900;48.738;9.306;2022-12-17T05:06:29;22.60;;;13.60;;
4652;SDS011;9900;48.738;9.306;2022-12-17T05:09:11;26.67;;;14.47;;
4652;SDS011;9900;48.738;9.306;2022-12-17T05:11:57;28.00;;;15.00;;
4652;SDS011;9900;48.738;9.306;2022-12-17T05:14:45;26.33;;;14.90;;
4652;SDS011;9900;48.738;9.306;2022-12-17T05:17:31;35.17;;;16.10;;
4652;SDS011;9900;48.738;9.306;2022-12-17T05:20:17;29.33;;;15.53;;
4652;SDS011;9900;48.738;9.306;2022-12-17T05:23:04;31.33;;;16.00;;
4652;SDS011;9900;48.738;9.306;2022-12-17T05:25:54;29.90;;;16.03;;
4652;SDS011;9900;48.738;9.306;2022-12-17T05:28:42;30.00;;;16.60;;
4652;SDS011;9900;48.738;9.306;2022-12-17T05:31:29;31.43;;;15.70;;
4652;SDS011;9900;48.738;9.306;2022-12-17T05:34:15;35.20;;;16.70;;
4652;SDS011;9900;48.738;9.306;2022-12-17T05:37:01;37.50;;;15.90;;
4652;SDS011;9900;48.738;9.306;2022-12-17T05:39:48;38.17;;;16.00;;
4652;SDS011;9900;48.738;9.306;2022-12-17T05:42:38;31.87;;;15.77;;
4652;SDS011;9900;48.738;9.306;2022-12-17T05:45:33;33.30;;;15.20;;
4652;SDS011;9900;48.738;9.306;2022-12-17T05:48:20;30.37;;;16.50;;
4652;SDS011;9900;48.738;9.306;2022-12-17T05:51:06;32.63;;;16.00;;
4652;SDS011;9900;48.738;9.306;2022-12-17T05:53:52;35.63;;;16.83;;
4652;SDS011;9900;48.738;9.306;2022-12-17T05:56:39;32.87;;;18.57;;
4652;SDS011;9900;48.738;9.306;2022-12-17T05:59:24;33.43;;;16.60;;
4652;SDS011;9900;48.738;9.306;2022-12-17T06:02:11;32.20;;;16.47;;
4652;SDS011;9900;48.738;9.306;2022-12-17T06:04:58;31.90;;;17.87;;
4652;SDS011;9900;48.738;9.306;2022-12-17T06:07:44;29.67;;;15.57;;
4652;SDS011;9900;48.738;9.306;2022-12-17T06:10:30;37.07;;;17.13;;
4652;SDS011;9900;48.738;9.306;2022-12-17T06:13:17;34.97;;;16.83;;
4652;SDS011;9900;48.738;9.306;2022-12-17T06:16:04;35.47;;;17.70;;
4652;SDS011;9900;48.738;9.306;2022-12-17T06:18:51;36.13;;;18.00;;
4652;SDS011;9900;48.738;9.306;2022-12-17T06:21:38;32.50;;;17.93;;
4652;SDS011;9900;48.738;9.306;2022-12-17T06:24:24;32.73;;;16.80;;
4652;SDS011;9900;48.738;9.306;2022-12-17T06:27:12;37.77;;;17.27;;
4652;SDS011;9900;48.738;9.306;2022-12-17T06:29:58;32.07;;;17.47;;
4652;SDS011;9900;48.738;9.306;2022-12-17T06:32:45;33.37;;;16.90;;
4652;SDS011;9900;48.738;9.306;2022-12-17T06:35:31;33.30;;;15.83;;
4652;SDS011;9900;48.738;9.306;2022-12-17T06:38:18;35.43;;;15.93;;
4652;SDS011;9900;48.738;9.306;2022-12-17T06:41:04;36.70;;;16.10;;
4652;SDS011;9900;48.738;9.306;2022-12-17T06:43:51;29.93;;;15.00;;
4652;SDS011;9900;48.738;9.306;2022-12-17T06:46:37;32.43;;;15.80;;
4652;SDS011;9900;48.738;9.306;2022-12-17T06:49:23;35.70;;;16.93;;
4652;SDS011;9900;48.738;9.306;2022-12-17T06:52:09;35.90;;;17.37;;
4652;SDS011;9900;48.738;9.306;2022-12-17T06:54:57;38.27;;;18.00;;
4652;SDS011;9900;48.738;9.306;2022-12-17T06:57:44;31.47;;;14.63;;
4652;SDS011;9900;48.738;9.306;2022-12-17T07:00:30;31.93;;;16.23;;
4652;SDS011;9900;48.738;9.306;2022-12-17T07:03:16;37.67;;;16.07;;
4652;SDS011;9900;48.738;9.306;2022-12-17T07:06:03;31.37;;;14.97;;
4652;SDS011;9900;48.738;9.306;2022-12-17T07:08:49;33.43;;;14.80;;
4652;SDS011;9900;48.738;9.306;2022-12-17T07:11:36;28.90;;;13.73;;
4652;SDS011;9900;48.738;9.306;2022-12-17T07:14:22;32.43;;;15.13;;
4652;SDS011;9900;48.738;9.306;2022-12-17T07:17:08;28.23;;;14.00;;
4652;SDS011;9900;48.738;9.306;2022-12-17T07:19:54;28.50;;;15.00;;
4652;SDS011;9900;48.738;9.306;2022-12-17T07:22:40;33.17;;;16.40;;
4652;SDS011;9900;48.738;9.306;2022-12-17T07:25:27;35.03;;;16.23;;
4652;SDS011;9900;48.738;9.306;2022-12-17T07:28:14;34.17;;;15.67;;
4652;SDS011;9900;48.738;9.306;2022-12-17T07:31:00;34.83;;;15.90;;
4652;SDS011;9900;48.738;9.306;2022-12-17T07:34:01;40.03;;;16.80;;
4652;SDS011;9900;48.738;9.306;2022-12-17T07:36:47;36.20;;;16.43;;
4652;SDS011;9900;48.738;9.306;2022-12-17T07:39:33;32.63;;;15.20;;
4652;SDS011;9900;48.738;9.306;2022-12-17T07:42:19;34.70;;;16.40;;
4652;SDS011;9900;48.738;9.306;2022-12-17T07:45:08;33.13;;;16.60;;
4652;SDS011;9900;48.738;9.306;2022-12-17T07:47:54;35.43;;;17.03;;
4652;SDS011;9900;48.738;9.306;2022-12-17T07:50:39;37.30;;;16.27;;
4652;SDS011;9900;48.738;9.306;2022-12-17T07:53:30;35.20;;;16.00;;
4652;SDS011;9900;48.738;9.306;2022-12-17T07:56:18;33.83;;;15.27;;
4652;SDS011;9900;48.738;9.306;2022-12-17T07:59:04;32.37;;;15.87;;
4652;SDS011;9900;48.738;9.306;2022-12-17T08:01:52;30.80;;;15.50;;
4652;SDS011;9900;48.738;9.306;2022-12-17T08:04:41;31.70;;;15.47;;
4652;SDS011;9900;48.738;9.306;2022-12-17T08:07:27;27.40;;;14.27;;
4652;SDS011;9900;48.738;9.306;2022-12-17T08:10:13;29.10;;;14.87;;
4652;SDS011;9900;48.738;9.306;2022-12-17T08:13:01;31.33;;;16.17;;
4652;SDS011;9900;48.738;9.306;2022-12-17T08:15:51;27.30;;;14.00;;
4652;SDS011;9900;48.738;9.306;2022-12-17T08:18:38;31.37;;;15.20;;
4652;SDS011;9900;48.738;9.306;2022-12-17T08:21:25;31.80;;;15.67;;
4652;SDS011;9900;48.738;9.306;2022-12-17T08:24:11;27.33;;;14.83;;
4652;SDS011;9900;48.738;9.306;2022-12-17T08:26:57;29.80;;;14.67;;
4652;SDS011;9900;48.738;9.306;2022-12-17T08:29:43;27.33;;;13.93;;
4652;SDS011;9900;48.738;9.306;2022-12-17T08:32:34;35.07;;;17.60;;
4652;SDS011;9900;48.738;9.306;2022-12-17T08:35:22;31.93;;;16.40;;
4652;SDS011;9900;48.738;9.306;2022-12-17T08:38:08;32.00;;;15.73;;
4652;SDS011;9900;48.738;9.306;2022-12-17T08:40:54;33.40;;;16.97;;
4652;SDS011;9900;48.738;9.306;2022-12-17T08:43:40;34.33;;;15.30;;
4652;SDS011;9900;48.738;9.306;2022-12-17T08:46:26;33.33;;;16.30;;
4652;SDS011;9900;48.738;9.306;2022-12-17T08:49:13;29.70;;;15.27;;
4652;SDS011;9900;48.738;9.306;2022-12-17T08:52:00;33.47;;;17.07;;
4652;SDS011;9900;48.738;9.306;2022-12-17T08:54:46;37.63;;;17.13;;
4652;SDS011;9900;48.738;9.306;2022-12-17T08:57:32;32.87;;;17.77;;
4652;SDS011;9900;48.738;9.306;2022-12-17T09:00:18;35.40;;;17.70;;
4652;SDS011;9900;48.738;9.306;2022-12-17T09:03:04;34.93;;;17.10;;
4652;SDS011;9900;48.738;9.306;2022-12-17T09:05:51;41.27;;;17.87;;
4652;SDS011;9900;48.738;9.306;2022-12-17T09:08:38;31.00;;;15.80;;
4652;SDS011;9900;48.738;9.306;2022-12-17T09:11:24;30.20;;;16.30;;
4652;SDS011;9900;48.738;9.306;2022-12-17T09:14:10;30.80;;;16.43;;
4652;SDS011;9900;48.738;9.306;2022-12-17T09:16:56;31.77;;;16.53;;
4652;SDS011;9900;48.738;9.306;2022-12-17T09:19:42;33.80;;;16.77;;
4652;SDS011;9900;48.738;9.306;2022-12-17T09:22:29;34.77;;;17.33;;
4652;SDS011;9900;48.738;9.306;2022-12-17T09:25:16;36.60;;;17.00;;
4652;SDS011;9900;48.738;9.306;2022-12-17T09:28:05;31.90;;;16.80;;
4652;SDS011;9900;48.738;9.306;2022-12-17T09:30:51;31.70;;;15.70;;
4652;SDS011;9900;48.738;9.306;2022-12-17T09:33:37;32.07;;;16.33;;
4652;SDS011;9900;48.738;9.306;2022-12-17T09:36:23;37.57;;;17.30;;
4652;SDS011;9900;48.738;9.306;2022-12-17T09:39:17;32.33;;;16.47;;
4652;SDS011;9900;48.738;9.306;2022-12-17T09:42:05;39.80;;;17.20;;
4652;SDS011;9900;48.738;9.306;2022-12-17T09:44:57;29.47;;;15.23;;
4652;SDS011;9900;48.738;9.306;2022-12-17T09:47:48;34.10;;;16.80;;
4652;SDS011;9900;48.738;9.306;2022-12-17T09:50:37;35.03;;;17.63;;
4652;SDS011;9900;48.738;9.306;2022-12-17T09:53:34;35.93;;;18.50;;
4652;SDS011;9900;48.738;9.306;2022-12-17T09:56:23;36.30;;;17.57;;
4652;SDS011;9900;48.738;9.306;2022-12-17T09:59:14;34.60;;;17.87;;
4652;SDS011;9900;48.738;9.306;2022-12-17T10:02:08;35.00;;;17.00;;
4652;SDS011;9900;48.738;9.306;2022-12-17T10:04:57;36.83;;;18.40;;
4652;SDS011;9900;48.738;9.306;2022-12-17T10:07:44;32.77;;;17.07;;
4652;SDS011;9900;48.738;9.306;2022-12-17T10:10:31;31.07;;;16.10;;
4652;SDS011;9900;48.738;9.306;2022-12-17T10:13:18;31.27;;;16.30;;
4652;SDS011;9900;48.738;9.306;2022-12-17T10:16:24;30.47;;;15.57;;
4652;SDS011;9900;48.738;9.306;2022-12-17T10:19:12;28.83;;;15.57;;
4652;SDS011;9900;48.738;9.306;2022-12-17T10:22:07;31.57;;;16.67;;
4652;SDS011;9900;48.738;9.306;2022-12-17T10:24:54;35.43;;;17.60;;
4652;SDS011;9900;48.738;9.306;2022-12-17T10:27:40;31.83;;;16.17;;
4652;SDS011;9900;48.738;9.306;2022-12-17T10:30:27;34.57;;;17.27;;
4652;SDS011;9900;48.738;9.306;2022-12-17T10:33:15;36.17;;;16.90;;
4652;SDS011;9900;48.738;9.306;2022-12-17T10:36:04;34.07;;;16.27;;
4652;SDS011;9900;48.738;9.306;2022-12-17T10:39:05;35.80;;;17.73;;
4652;SDS011;9900;48.738;9.306;2022-12-17T10:41:51;34.70;;;17.43;;
4652;SDS011;9900;48.738;9.306;2022-12-17T10:44:37;32.03;;;15.90;;
4652;SDS011;9900;48.738;9.306;2022-12-17T10:47:24;34.20;;;16.87;;
4652;SDS011;9900;48.738;9.306;2022-12-17T10:50:27;37.50;;;19.27;;
4652;SDS011;9900;48.738;9.306;2022-12-17T10:53:14;40.10;;;18.20;;
4652;SDS011;9900;48.738;9.306;2022-12-17T10:56:04;36.00;;;18.60;;
4652;SDS011;9900;48.738;9.306;2022-12-17T10:58:51;36.37;;;18.30;;
4652;SDS011;9900;48.738;9.306;2022-12-17T11:01:39;39.57;;;18.70;;
4652;SDS011;9900;48.738;9.306;2022-12-17T11:04:26;36.10;;;17.67;;
4652;SDS011;9900;48.738;9.306;2022-12-17T11:07:16;36.67;;;19.00;;
4652;SDS011;9900;48.738;9.306;2022-12-17T11:10:04;31.20;;;17.93;;
4652;SDS011;9900;48.738;9.306;2022-12-17T11:12:53;34.53;;;18.03;;
4652;SDS011;9900;48.738;9.306;2022-12-17T11:15:42;36.00;;;18.17;;
4652;SDS011;9900;48.738;9.306;2022-12-17T11:18:29;30.53;;;15.80;;
4652;SDS011;9900;48.738;9.306;2022-12-17T11:21:18;32.00;;;17.60;;
4652;SDS011;9900;48.738;9.306;2022-12-17T11:24:09;36.87;;;19.63;;
4652;SDS011;9900;48.738;9.306;2022-12-17T11:26:57;41.33;;;19.50;;
4652;SDS011;9900;48.738;9.306;2022-12-17T11:29:43;38.00;;;19.37;;
4652;SDS011;9900;48.738;9.306;2022-12-17T11:32:33;33.73;;;17.07;;
4652;SDS011;9900;48.738;9.306;2022-12-17T11:35:32;35.00;;;17.60;;
4652;SDS011;9900;48.738;9.306;2022-12-17T11:38:23;38.73;;;18.07;;
4652;SDS011;9900;48.738;9.306;2022-12-17T11:41:20;34.80;;;17.83;;
4652;SDS011;9900;48.738;9.306;2022-12-17T11:44:14;36.70;;;18.50;;
4652;SDS011;9900;48.738;9.306;2022-12-17T11:47:07;36.90;;;18.67;;
4652;SDS011;9900;48.738;9.306;2022-12-17T11:49:57;36.30;;;19.40;;
4652;SDS011;9900;48.738;9.306;2022-12-17T11:52:52;36.87;;;17.90;;
4652;SDS011;9900;48.738;9.306;2022-12-17T11:55:42;33.80;;;18.10;;
4652;SDS011;9900;48.738;9.306;2022-12-17T11:58:35;42.87;;;19.27;;
4652;SDS011;9900;48.738;9.306;2022-12-17T12:01:26;39.60;;;20.70;;
4652;SDS011;9900;48.738;9.306;2022-12-17T12:04:21;38.10;;;19.50;;
4652;SDS011;9900;48.738;9.306;2022-12-17T12:07:14;33.63;;;18.00;;
4652;SDS011;9900;48.738;9.306;2022-12-17T12:10:05;39.60;;;19.53;;
4652;SDS011;9900;48.738;9.306;2022-12-17T12:12:58;45.93;;;20.80;;
4652;SDS011;9900;48.738;9.306;2022-12-17T12:15:53;35.13;;;17.70;;
4652;SDS011;9900;48.738;9.306;2022-12-17T12:18:47;40.30;;;20.83;;
4652;SDS011;9900;48.738;9.306;2022-12-17T12:21:38;37.43;;;19.87;;
4652;SDS011;9900;48.738;9.306;2022-12-17T12:24:29;37.70;;;18.50;;
4652;SDS011;9900;48.738;9.306;2022-12-17T12:27:22;41.00;;;19.20;;
4652;SDS011;9900;48.738;9.306;2022-12-17T12:30:15;35.40;;;18.70;;
4652;SDS011;9900;48.738;9.306;2022-12-17T12:33:07;33.83;;;17.93;;
4652;SDS011;9900;48.738;9.306;2022-12-17T12:36:02;40.90;;;20.97;;
4652;SDS011;9900;48.738;9.306;2022-12-17T12:38:51;43.80;;;22.03;;
4652;SDS011;9900;48.738;9.306;2022-12-17T12:41:40;37.03;;;18.90;;
4652;SDS011;9900;48.738;9.306;2022-12-17T12:44:31;37.80;;;20.30;;
4652;SDS011;9900;48.738;9.306;2022-12-17T12:47:22;43.70;;;20.83;;
4652;SDS011;9900;48.738;9.306;2022-12-17T12:50:16;39.77;;;20.50;;
4652;SDS011;9900;48.738;9.306;2022-12-17T12:53:08;39.70;;;18.80;;
4652;SDS011;9900;48.738;9.306;2022-12-17T12:55:56;39.80;;;19.13;;
4652;SDS011;9900;48.738;9.306;2022-12-17T12:58:42;38.30;;;20.90;;
4652;SDS011;9900;48.738;9.306;2022-12-17T13:01:32;39.60;;;20.97;;
4652;SDS011;9900;48.738;9.306;2022-12-17T13:04:25;36.87;;;19.37;;
4652;SDS011;9900;48.738;9.306;2022-12-17T13:07:23;37.80;;;20.73;;
4652;SDS011;9900;48.738;9.306;2022-12-17T13:09:53;45.07;;;20.77;;
4652;SDS011;9900;48.738;9.306;2022-12-17T13:12:25;42.30;;;21.60;;
4652;SDS011;9900;48.738;9.306;2022-12-17T13:14:58;43.90;;;22.47;;
4652;SDS011;9900;48.738;9.306;2022-12-17T13:17:37;38.30;;;20.93;;
4652;SDS011;9900;48.738;9.306;2022-12-17T13:20:20;42.73;;;21.50;;
4652;SDS011;9900;48.738;9.306;2022-12-17T13:23:03;37.27;;;20.57;;
4652;SDS011;9900;48.738;9.306;2022-12-17T13:25:39;42.43;;;22.10;;
4652;SDS011;9900;48.738;9.306;2022-12-17T13:28:27;42.70;;;20.50;;
4652;SDS011;9900;48.738;9.306;2022-12-17T13:31:00;39.57;;;20.83;;
4652;SDS011;9900;48.738;9.306;2022-12-17T13:33:30;43.03;;;22.23;;
4652;SDS011;9900;48.738;9.306;2022-12-17T13:36:06;38.07;;;21.00;;
4652;SDS011;9900;48.738;9.306;2022-12-17T13:38:41;43.73;;;21.17;;
4652;SDS011;9900;48.738;9.306;2022-12-17T13:41:13;46.63;;;22.70;;
4652;SDS011;9900;48.738;9.306;2022-12-17T13:43:43;44.30;;;22.10;;
4652;SDS011;9900;48.738;9.306;2022-12-17T13:46:17;45.63;;;23.00;;
4652;SDS011;9900;48.738;9.306;2022-12-17T13:48:53;40.47;;;21.07;;
4652;SDS011;9900;48.738;9.306;2022-12-17T13:51:24;45.13;;;23.13;;
4652;SDS011;9900;48.738;9.306;2022-12-17T13:53:56;44.20;;;22.00;;
4652;SDS011;9900;48.738;9.306;2022-12-17T13:56:26;41.10;;;20.63;;
4652;SDS011;9900;48.738;9.306;2022-12-17T13:58:57;41.33;;;22.23;;
4652;SDS011;9900;48.738;9.306;2022-12-17T14:01:42;49.23;;;22.37;;
4652;SDS011;9900;48.738;9.306;2022-12-17T14:04:18;47.87;;;23.10;;
4652;SDS011;9900;48.738;9.306;2022-12-17T14:06:48;41.43;;;21.10;;
4652;SDS011;9900;48.738;9.306;2022-12-17T14:09:20;42.10;;;21.53;;
4652;SDS011;9900;48.738;9.306;2022-12-17T14:11:49;41.07;;;21.57;;
4652;SDS011;9900;48.738;9.306;2022-12-17T14:14:36;40.60;;;20.20;;
4652;SDS011;9900;48.738;9.306;2022-12-17T14:17:13;45.20;;;21.60;;
4652;SDS011;9900;48.738;9.306;2022-12-17T14:19:43;48.27;;;23.13;;
4652;SDS011;9900;48.738;9.306;2022-12-17T14:22:14;41.93;;;21.13;;
4652;SDS011;9900;48.738;9.306;2022-12-17T14:24:46;44.43;;;21.50;;
4652;SDS011;9900;48.738;9.306;2022-12-17T14:27:21;46.87;;;22.10;;
4652;SDS011;9900;48.738;9.306;2022-12-17T14:29:51;42.47;;;21.40;;
4652;SDS011;9900;48.738;9.306;2022-12-17T14:32:24;45.70;;;22.27;;
4652;SDS011;9900;48.738;9.306;2022-12-17T14:34:53;47.10;;;22.47;;
4652;SDS011;9900;48.738;9.306;2022-12-17T14:37:27;47.77;;;22.80;;
4652;SDS011;9900;48.738;9.306;2022-12-17T14:39:59;44.03;;;22.57;;
4652;SDS011;9900;48.738;9.306;2022-12-17T14:42:29;50.07;;;24.20;;
4652;SDS011;9900;48.738;9.306;2022-12-17T14:45:03;54.63;;;22.97;;
4652;SDS011;9900;48.738;9.306;2022-12-17T14:47:34;44.63;;;22.77;;
4652;SDS011;9900;48.738;9.306;2022-12-17T14:50:05;48.03;;;23.70;;
4652;SDS011;9900;48.738;9.306;2022-12-17T14:52:37;48.73;;;23.73;;
4652;SDS011;9900;48.738;9.306;2022-12-17T14:55:26;47.63;;;23.40;;
4652;SDS011;9900;48.738;9.306;2022-12-17T14:58:16;48.60;;;23.37;;
4652;SDS011;9900;48.738;9.306;2022-12-17T15:00:48;53.43;;;23.67;;
4652;SDS011;9900;48.738;9.306;2022-12-17T15:03:20;46.70;;;23.13;;
4652;SDS011;9900;48.738;9.306;2022-12-17T15:05:52;54.57;;;22.93;;
4652;SDS011;9900;48.738;9.306;2022-12-17T15:08:22;56.40;;;25.23;;
4652;SDS011;9900;48.738;9.306;2022-12-17T15:10:52;53.77;;;25.53;;
4652;SDS011;9900;48.738;9.306;2022-12-17T15:13:21;54.67;;;26.33;;
4652;SDS011;9900;48.738;9.306;2022-12-17T15:15:51;58.73;;;27.33;;
4652;SDS011;9900;48.738;9.306;2022-12-17T15:18:19;58.83;;;25.80;;
4652;SDS011;9900;48.738;9.306;2022-12-17T15:20:48;58.40;;;25.93;;
4652;SDS011;9900;48.738;9.306;2022-12-17T15:23:17;47.90;;;24.57;;
4652;SDS011;9900;48.738;9.306;2022-12-17T15:25:47;56.50;;;26.03;;
4652;SDS011;9900;48.738;9.306;2022-12-17T15:28:19;51.43;;;26.80;;
4652;SDS011;9900;48.738;9.306;2022-12-17T15:30:49;53.23;;;24.43;;
4652;SDS011;9900;48.738;9.306;2022-12-17T15:33:17;58.00;;;25.73;;
4652;SDS011;9900;48.738;9.306;2022-12-17T15:35:46;56.73;;;25.33;;
4652;SDS011;9900;48.738;9.306;2022-12-17T15:38:15;52.60;;;23.70;;
4652;SDS011;9900;48.738;9.306;2022-12-17T15:40:43;50.63;;;24.47;;
4652;SDS011;9900;48.738;9.306;2022-12-17T15:43:12;58.70;;;25.33;;
4652;SDS011;9900;48.738;9.306;2022-12-17T15:45:43;50.50;;;24.00;;
4652;SDS011;9900;48.738;9.306;2022-12-17T15:48:13;53.00;;;24.70;;
4652;SDS011;9900;48.738;9.306;2022-12-17T15:50:43;50.90;;;24.20;;
4652;SDS011;9900;48.738;9.306;2022-12-17T15:53:11;54.80;;;26.27;;
4652;SDS011;9900;48.738;9.306;2022-12-17T15:55:40;59.20;;;25.30;;
4652;SDS011;9900;48.738;9.306;2022-12-17T15:58:09;60.03;;;25.60;;
4652;SDS011;9900;48.738;9.306;2022-12-17T16:00:38;51.43;;;23.00;;
4652;SDS011;9900;48.738;9.306;2022-12-17T16:03:08;47.40;;;23.93;;
4652;SDS011;9900;48.738;9.306;2022-12-17T16:05:37;51.30;;;22.47;;
4652;SDS011;9900;48.738;9.306;2022-12-17T16:08:05;51.40;;;25.43;;
4652;SDS011;9900;48.738;9.306;2022-12-17T16:10:34;58.97;;;24.57;;
4652;SDS011;9900;48.738;9.306;2022-12-17T16:13:04;51.93;;;23.67;;
4652;SDS011;9900;48.738;9.306;2022-12-17T16:15:32;56.70;;;24.67;;
4652;SDS011;9900;48.738;9.306;2022-12-17T16:18:01;50.30;;;22.13;;
4652;SDS011;9900;48.738;9.306;2022-12-17T16:20:31;59.13;;;24.20;;
4652;SDS011;9900;48.738;9.306;2022-12-17T16:23:00;53.27;;;23.43;;
4652;SDS011;9900;48.738;9.306;2022-12-17T16:25:29;56.80;;;24.73;;
4652;SDS011;9900;48.738;9.306;2022-12-17T16:27:57;56.50;;;24.50;;
4652;SDS011;9900;48.738;9.306;2022-12-17T16:30:26;51.73;;;23.97;;
4652;SDS011;9900;48.738;9.306;2022-12-17T16:32:56;48.63;;;23.40;;